Pagina principală
METAR-TAF:

METAR-TAF

Aeroporturi :

Târgu Mureș, România

Aeroportul Internațional Transilvania

Latitudine: 46-32N, longitudine: 024-32E, elevație: 308 m

Observații meteo curente

Raportul a fost făcut în urmă cu 11 de minute, la 05:00 UTC
Vânt 4 kt de la Sud-vest
Temperatură 0°C
Umiditate 100%
Presiune 1016 hPa
Vizibilitate: 3300 m
zăpadă slabă

METAR: LRTM 180500Z AUTO 23004KT 3300 -SN OVC016/// M00/M00 Q1016

Ora: 07:11 (05:11 UTC)

Prognoză

Raportul a fost făcut în urmă cu 15 ore și 11 de minute, la 14:00 UTC
Prognoză valabilă de la 17 ora 15 UTC la 17 ora 24 UTC
Vânt 4 kt din direcții variabile
Vizibilitate de 10 km sau mai mult
Total acoperit la o înălțime de 1000 picior
Temporar
de la 17 ora 17 UTC la 17 ora 24 UTC
Vizibilitate: 5000 m
Nori fragmentați la o înălțime de 500 picior
Total acoperit la o înălțime de 1000 picior
zăpadă slabă, aer cețos

TAF: LRTM 171400Z 1715/1724 VRB04KT 9999 OVC010 TEMPO 1717/1724 5000 -SN BR BKN005 OVC010

Observații și prognoze meteo pentru peste 4.000 de aeroporturi (rapoarte METAR și TAF).

Stațiile disponibile sunt reprezentate pe hartă prin puncte galbene și roșii.

Țineți indicatorul mouse-ului pe punctul dorit pentru a vedea denumirea stației.

Apoi, faceți clic pentru a vedea observațiile și prognozele meteorologice.

Pentru a schimba harta: Pentru mărire, faceți clic pe butoanele verzi cu cruce neagră; pentru micșorare, pe butonul verde cu o liniuță; pentru hărți învecinate, pe săgețile verzi.


METAR-TAF: